sensor_id;sensor_type;location;lat;lon;timestamp;P1;P2;P0
73565;PMS5003;61846;52.970;-3.168;2023-02-28T00:01:54;17;15;
73565;PMS5003;61846;52.970;-3.168;2023-02-28T00:04:19;15;12;
73565;PMS5003;61846;52.970;-3.168;2023-02-28T00:06:45;13;13;
73565;PMS5003;61846;52.970;-3.168;2023-02-28T00:09:10;9;9;
73565;PMS5003;61846;52.970;-3.168;2023-02-28T00:11:36;11;8;
73565;PMS5003;61846;52.970;-3.168;2023-02-28T00:14:01;9;9;
73565;PMS5003;61846;52.970;-3.168;2023-02-28T00:16:27;9;8;
73565;PMS5003;61846;52.970;-3.168;2023-02-28T00:18:52;11;9;
73565;PMS5003;61846;52.970;-3.168;2023-02-28T00:21:19;15;14;
73565;PMS5003;61846;52.970;-3.168;2023-02-28T00:23:44;10;10;
73565;PMS5003;61846;52.970;-3.168;2023-02-28T00:26:09;12;10;
73565;PMS5003;61846;52.970;-3.168;2023-02-28T00:28:35;11;10;
73565;PMS5003;61846;52.970;-3.168;2023-02-28T00:31:00;13;11;
73565;PMS5003;61846;52.970;-3.168;2023-02-28T00:33:25;11;8;
73565;PMS5003;61846;52.970;-3.168;2023-02-28T00:35:51;10;9;
73565;PMS5003;61846;52.970;-3.168;2023-02-28T00:38:16;11;9;
73565;PMS5003;61846;52.970;-3.168;2023-02-28T00:40:42;15;12;
73565;PMS5003;61846;52.970;-3.168;2023-02-28T00:43:08;9;7;
73565;PMS5003;61846;52.970;-3.168;2023-02-28T00:45:33;13;11;
73565;PMS5003;61846;52.970;-3.168;2023-02-28T00:47:59;11;11;
73565;PMS5003;61846;52.970;-3.168;2023-02-28T00:50:24;10;10;
73565;PMS5003;61846;52.970;-3.168;2023-02-28T00:52:50;9;8;
73565;PMS5003;61846;52.970;-3.168;2023-02-28T00:55:16;7;7;
73565;PMS5003;61846;52.970;-3.168;2023-02-28T00:57:41;6;6;
73565;PMS5003;61846;52.970;-3.168;2023-02-28T01:00:07;8;8;
73565;PMS5003;61846;52.970;-3.168;2023-02-28T01:02:33;7;7;
73565;PMS5003;61846;52.970;-3.168;2023-02-28T01:04:58;8;8;
73565;PMS5003;61846;52.970;-3.168;2023-02-28T01:07:24;8;6;
73565;PMS5003;61846;52.970;-3.168;2023-02-28T01:09:50;7;5;
73565;PMS5003;61846;52.970;-3.168;2023-02-28T01:12:15;6;6;
73565;PMS5003;61846;52.970;-3.168;2023-02-28T01:14:41;8;7;
73565;PMS5003;61846;52.970;-3.168;2023-02-28T01:17:06;7;7;
73565;PMS5003;61846;52.970;-3.168;2023-02-28T01:19:32;7;6;
73565;PMS5003;61846;52.970;-3.168;2023-02-28T01:22:00;10;10;
73565;PMS5003;61846;52.970;-3.168;2023-02-28T01:24:23;16;9;
73565;PMS5003;61846;52.970;-3.168;2023-02-28T01:26:48;15;13;
73565;PMS5003;61846;52.970;-3.168;2023-02-28T01:29:14;12;12;
73565;PMS5003;61846;52.970;-3.168;2023-02-28T01:31:38;16;16;
73565;PMS5003;61846;52.970;-3.168;2023-02-28T01:34:04;23;20;
73565;PMS5003;61846;52.970;-3.168;2023-02-28T01:36:29;17;17;
73565;PMS5003;61846;52.970;-3.168;2023-02-28T01:38:55;17;17;
73565;PMS5003;61846;52.970;-3.168;2023-02-28T01:41:21;19;17;
73565;PMS5003;61846;52.970;-3.168;2023-02-28T01:43:52;22;15;
73565;PMS5003;61846;52.970;-3.168;2023-02-28T01:46:13;14;14;
73565;PMS5003;61846;52.970;-3.168;2023-02-28T01:48:38;14;14;
73565;PMS5003;61846;52.970;-3.168;2023-02-28T01:51:04;14;14;
73565;PMS5003;61846;52.970;-3.168;2023-02-28T01:53:30;10;10;
73565;PMS5003;61846;52.970;-3.168;2023-02-28T01:55:54;11;10;
73565;PMS5003;61846;52.970;-3.168;2023-02-28T01:58:20;9;9;
73565;PMS5003;61846;52.970;-3.168;2023-02-28T02:00:45;13;12;
73565;PMS5003;61846;52.970;-3.168;2023-02-28T02:03:11;12;12;
73565;PMS5003;61846;52.970;-3.168;2023-02-28T02:05:36;12;11;
73565;PMS5003;61846;52.970;-3.168;2023-02-28T02:08:02;10;10;
73565;PMS5003;61846;52.970;-3.168;2023-02-28T02:10:27;9;9;
73565;PMS5003;61846;52.970;-3.168;2023-02-28T02:12:56;13;12;
73565;PMS5003;61846;52.970;-3.168;2023-02-28T02:15:19;12;11;
73565;PMS5003;61846;52.970;-3.168;2023-02-28T02:17:44;10;9;
73565;PMS5003;61846;52.970;-3.168;2023-02-28T02:20:18;10;10;
73565;PMS5003;61846;52.970;-3.168;2023-02-28T02:22:37;13;13;
73565;PMS5003;61846;52.970;-3.168;2023-02-28T02:25:05;17;17;
73565;PMS5003;61846;52.970;-3.168;2023-02-28T02:27:28;27;19;
73565;PMS5003;61846;52.970;-3.168;2023-02-28T02:32:20;20;14;
73565;PMS5003;61846;52.970;-3.168;2023-02-28T02:34:44;14;14;
73565;PMS5003;61846;52.970;-3.168;2023-02-28T02:37:10;14;14;
73565;PMS5003;61846;52.970;-3.168;2023-02-28T02:39:36;11;11;
73565;PMS5003;61846;52.970;-3.168;2023-02-28T02:42:00;10;10;
73565;PMS5003;61846;52.970;-3.168;2023-02-28T02:44:26;10;9;
73565;PMS5003;61846;52.970;-3.168;2023-02-28T02:46:51;14;14;
73565;PMS5003;61846;52.970;-3.168;2023-02-28T02:49:17;10;9;
73565;PMS5003;61846;52.970;-3.168;2023-02-28T02:51:42;11;10;
73565;PMS5003;61846;52.970;-3.168;2023-02-28T02:54:08;13;13;
73565;PMS5003;61846;52.970;-3.168;2023-02-28T02:56:33;16;15;
73565;PMS5003;61846;52.970;-3.168;2023-02-28T02:58:59;20;15;
73565;PMS5003;61846;52.970;-3.168;2023-02-28T03:01:23;16;14;
73565;PMS5003;61846;52.970;-3.168;2023-02-28T03:03:48;21;17;
73565;PMS5003;61846;52.970;-3.168;2023-02-28T03:06:14;25;23;
73565;PMS5003;61846;52.970;-3.168;2023-02-28T03:08:39;21;18;
73565;PMS5003;61846;52.970;-3.168;2023-02-28T03:11:05;18;13;
73565;PMS5003;61846;52.970;-3.168;2023-02-28T03:13:36;15;15;
73565;PMS5003;61846;52.970;-3.168;2023-02-28T03:15:58;29;25;
73565;PMS5003;61846;52.970;-3.168;2023-02-28T03:18:22;19;17;
73565;PMS5003;61846;52.970;-3.168;2023-02-28T03:20:48;23;20;
73565;PMS5003;61846;52.970;-3.168;2023-02-28T03:23:13;19;17;
73565;PMS5003;61846;52.970;-3.168;2023-02-28T03:25:39;18;18;
73565;PMS5003;61846;52.970;-3.168;2023-02-28T03:28:05;21;20;
73565;PMS5003;61846;52.970;-3.168;2023-02-28T03:30:30;15;13;
73565;PMS5003;61846;52.970;-3.168;2023-02-28T03:32:55;13;12;
73565;PMS5003;61846;52.970;-3.168;2023-02-28T03:35:21;9;9;
73565;PMS5003;61846;52.970;-3.168;2023-02-28T03:37:45;10;10;
73565;PMS5003;61846;52.970;-3.168;2023-02-28T03:40:11;11;11;
73565;PMS5003;61846;52.970;-3.168;2023-02-28T03:42:36;14;14;
73565;PMS5003;61846;52.970;-3.168;2023-02-28T03:45:02;16;14;
73565;PMS5003;61846;52.970;-3.168;2023-02-28T03:47:27;18;18;
73565;PMS5003;61846;52.970;-3.168;2023-02-28T03:49:53;18;17;
73565;PMS5003;61846;52.970;-3.168;2023-02-28T03:52:17;27;23;
73565;PMS5003;61846;52.970;-3.168;2023-02-28T03:54:44;24;20;
73565;PMS5003;61846;52.970;-3.168;2023-02-28T03:57:10;29;22;
73565;PMS5003;61846;52.970;-3.168;2023-02-28T03:59:34;31;27;
73565;PMS5003;61846;52.970;-3.168;2023-02-28T04:01:59;30;23;
73565;PMS5003;61846;52.970;-3.168;2023-02-28T04:04:24;26;20;
73565;PMS5003;61846;52.970;-3.168;2023-02-28T04:06:50;21;19;
73565;PMS5003;61846;52.970;-3.168;2023-02-28T04:09:15;25;19;
73565;PMS5003;61846;52.970;-3.168;2023-02-28T04:11:41;26;19;
73565;PMS5003;61846;52.970;-3.168;2023-02-28T04:14:07;29;18;
73565;PMS5003;61846;52.970;-3.168;2023-02-28T04:16:32;21;14;
73565;PMS5003;61846;52.970;-3.168;2023-02-28T04:18:57;17;16;
73565;PMS5003;61846;52.970;-3.168;2023-02-28T04:21:23;21;17;
73565;PMS5003;61846;52.970;-3.168;2023-02-28T04:23:48;27;22;
73565;PMS5003;61846;52.970;-3.168;2023-02-28T04:26:13;26;19;
73565;PMS5003;61846;52.970;-3.168;2023-02-28T04:28:39;25;23;
73565;PMS5003;61846;52.970;-3.168;2023-02-28T04:31:05;31;25;
73565;PMS5003;61846;52.970;-3.168;2023-02-28T04:33:30;27;20;
73565;PMS5003;61846;52.970;-3.168;2023-02-28T04:35:59;25;22;
73565;PMS5003;61846;52.970;-3.168;2023-02-28T04:38:20;32;27;
73565;PMS5003;61846;52.970;-3.168;2023-02-28T04:40:46;27;20;
73565;PMS5003;61846;52.970;-3.168;2023-02-28T04:43:11;21;17;
73565;PMS5003;61846;52.970;-3.168;2023-02-28T04:45:37;31;23;
73565;PMS5003;61846;52.970;-3.168;2023-02-28T04:48:02;24;21;
73565;PMS5003;61846;52.970;-3.168;2023-02-28T04:50:28;20;18;
73565;PMS5003;61846;52.970;-3.168;2023-02-28T04:52:53;16;15;
73565;PMS5003;61846;52.970;-3.168;2023-02-28T04:55:18;18;17;
73565;PMS5003;61846;52.970;-3.168;2023-02-28T04:57:44;21;19;
73565;PMS5003;61846;52.970;-3.168;2023-02-28T05:00:10;27;20;
73565;PMS5003;61846;52.970;-3.168;2023-02-28T05:02:35;28;21;
73565;PMS5003;61846;52.970;-3.168;2023-02-28T05:05:00;26;24;
73565;PMS5003;61846;52.970;-3.168;2023-02-28T05:07:26;25;23;
73565;PMS5003;61846;52.970;-3.168;2023-02-28T05:09:52;20;16;
73565;PMS5003;61846;52.970;-3.168;2023-02-28T05:12:16;17;17;
73565;PMS5003;61846;52.970;-3.168;2023-02-28T05:14:42;30;28;
73565;PMS5003;61846;52.970;-3.168;2023-02-28T05:17:08;33;30;
73565;PMS5003;61846;52.970;-3.168;2023-02-28T05:19:33;36;22;
73565;PMS5003;61846;52.970;-3.168;2023-02-28T05:21:58;35;28;
73565;PMS5003;61846;52.970;-3.168;2023-02-28T05:24:24;19;18;
73565;PMS5003;61846;52.970;-3.168;2023-02-28T05:26:49;29;22;
73565;PMS5003;61846;52.970;-3.168;2023-02-28T05:29:15;23;18;
73565;PMS5003;61846;52.970;-3.168;2023-02-28T05:31:40;20;17;
73565;PMS5003;61846;52.970;-3.168;2023-02-28T05:34:06;23;19;
73565;PMS5003;61846;52.970;-3.168;2023-02-28T05:36:31;14;14;
73565;PMS5003;61846;52.970;-3.168;2023-02-28T05:38:57;9;9;
73565;PMS5003;61846;52.970;-3.168;2023-02-28T05:41:22;15;14;
73565;PMS5003;61846;52.970;-3.168;2023-02-28T05:43:48;15;8;
73565;PMS5003;61846;52.970;-3.168;2023-02-28T05:46:13;14;13;
73565;PMS5003;61846;52.970;-3.168;2023-02-28T05:48:39;11;11;
73565;PMS5003;61846;52.970;-3.168;2023-02-28T05:51:04;14;9;
73565;PMS5003;61846;52.970;-3.168;2023-02-28T05:53:29;13;10;
73565;PMS5003;61846;52.970;-3.168;2023-02-28T05:55:55;8;8;
73565;PMS5003;61846;52.970;-3.168;2023-02-28T05:58:20;12;11;
73565;PMS5003;61846;52.970;-3.168;2023-02-28T06:00:45;10;10;
73565;PMS5003;61846;52.970;-3.168;2023-02-28T06:03:10;10;10;
73565;PMS5003;61846;52.970;-3.168;2023-02-28T06:05:36;10;10;
73565;PMS5003;61846;52.970;-3.168;2023-02-28T06:08:01;10;10;
73565;PMS5003;61846;52.970;-3.168;2023-02-28T06:10:27;8;6;
73565;PMS5003;61846;52.970;-3.168;2023-02-28T06:12:53;12;12;
73565;PMS5003;61846;52.970;-3.168;2023-02-28T06:15:18;8;8;
73565;PMS5003;61846;52.970;-3.168;2023-02-28T06:17:43;9;9;
73565;PMS5003;61846;52.970;-3.168;2023-02-28T06:20:10;20;18;
73565;PMS5003;61846;52.970;-3.168;2023-02-28T06:22:34;31;29;
73565;PMS5003;61846;52.970;-3.168;2023-02-28T06:25:00;23;21;
73565;PMS5003;61846;52.970;-3.168;2023-02-28T06:27:25;36;29;
73565;PMS5003;61846;52.970;-3.168;2023-02-28T06:29:53;26;17;
73565;PMS5003;61846;52.970;-3.168;2023-02-28T06:32:16;56;49;
73565;PMS5003;61846;52.970;-3.168;2023-02-28T06:34:41;57;48;
73565;PMS5003;61846;52.970;-3.168;2023-02-28T06:37:07;93;78;
73565;PMS5003;61846;52.970;-3.168;2023-02-28T06:39:32;82;74;
73565;PMS5003;61846;52.970;-3.168;2023-02-28T06:41:57;89;85;
73565;PMS5003;61846;52.970;-3.168;2023-02-28T06:44:23;53;51;
73565;PMS5003;61846;52.970;-3.168;2023-02-28T06:46:48;20;18;
73565;PMS5003;61846;52.970;-3.168;2023-02-28T06:49:13;15;15;
73565;PMS5003;61846;52.970;-3.168;2023-02-28T06:51:39;10;10;
73565;PMS5003;61846;52.970;-3.168;2023-02-28T06:54:04;10;10;
73565;PMS5003;61846;52.970;-3.168;2023-02-28T06:56:29;12;12;
73565;PMS5003;61846;52.970;-3.168;2023-02-28T06:58:55;12;12;
73565;PMS5003;61846;52.970;-3.168;2023-02-28T07:01:20;9;8;
73565;PMS5003;61846;52.970;-3.168;2023-02-28T07:03:46;10;10;
73565;PMS5003;61846;52.970;-3.168;2023-02-28T07:06:12;14;11;
73565;PMS5003;61846;52.970;-3.168;2023-02-28T07:08:37;14;11;
73565;PMS5003;61846;52.970;-3.168;2023-02-28T07:11:03;14;14;
73565;PMS5003;61846;52.970;-3.168;2023-02-28T07:13:28;9;8;
73565;PMS5003;61846;52.970;-3.168;2023-02-28T07:15:54;13;13;
73565;PMS5003;61846;52.970;-3.168;2023-02-28T07:18:19;8;8;
73565;PMS5003;61846;52.970;-3.168;2023-02-28T07:20:45;22;20;
73565;PMS5003;61846;52.970;-3.168;2023-02-28T07:23:11;14;12;
73565;PMS5003;61846;52.970;-3.168;2023-02-28T07:25:36;8;8;
73565;PMS5003;61846;52.970;-3.168;2023-02-28T07:28:02;12;12;
73565;PMS5003;61846;52.970;-3.168;2023-02-28T07:30:28;35;31;
73565;PMS5003;61846;52.970;-3.168;2023-02-28T07:32:52;20;19;
73565;PMS5003;61846;52.970;-3.168;2023-02-28T07:35:18;8;8;
73565;PMS5003;61846;52.970;-3.168;2023-02-28T07:37:43;15;13;
73565;PMS5003;61846;52.970;-3.168;2023-02-28T07:40:10;25;23;
73565;PMS5003;61846;52.970;-3.168;2023-02-28T07:42:34;40;34;
73565;PMS5003;61846;52.970;-3.168;2023-02-28T07:44:59;18;18;
73565;PMS5003;61846;52.970;-3.168;2023-02-28T07:47:25;39;36;
73565;PMS5003;61846;52.970;-3.168;2023-02-28T07:49:50;43;39;
73565;PMS5003;61846;52.970;-3.168;2023-02-28T07:52:16;36;30;
73565;PMS5003;61846;52.970;-3.168;2023-02-28T07:54:41;29;26;
73565;PMS5003;61846;52.970;-3.168;2023-02-28T07:57:07;39;36;
73565;PMS5003;61846;52.970;-3.168;2023-02-28T07:59:32;18;15;
73565;PMS5003;61846;52.970;-3.168;2023-02-28T08:01:58;11;11;
73565;PMS5003;61846;52.970;-3.168;2023-02-28T08:04:24;6;6;
73565;PMS5003;61846;52.970;-3.168;2023-02-28T08:06:50;8;8;
73565;PMS5003;61846;52.970;-3.168;2023-02-28T08:09:15;6;6;
73565;PMS5003;61846;52.970;-3.168;2023-02-28T08:11:41;5;5;
73565;PMS5003;61846;52.970;-3.168;2023-02-28T08:14:06;5;4;
73565;PMS5003;61846;52.970;-3.168;2023-02-28T08:16:32;4;1;
73565;PMS5003;61846;52.970;-3.168;2023-02-28T08:18:58;3;3;
73565;PMS5003;61846;52.970;-3.168;2023-02-28T08:21:23;3;3;
73565;PMS5003;61846;52.970;-3.168;2023-02-28T08:23:49;4;2;
73565;PMS5003;61846;52.970;-3.168;2023-02-28T08:26:14;4;4;
73565;PMS5003;61846;52.970;-3.168;2023-02-28T08:28:40;7;5;
73565;PMS5003;61846;52.970;-3.168;2023-02-28T08:31:07;4;4;
73565;PMS5003;61846;52.970;-3.168;2023-02-28T08:33:31;6;6;
73565;PMS5003;61846;52.970;-3.168;2023-02-28T08:35:57;9;9;
73565;PMS5003;61846;52.970;-3.168;2023-02-28T08:38:23;6;6;
73565;PMS5003;61846;52.970;-3.168;2023-02-28T08:40:48;8;8;
73565;PMS5003;61846;52.970;-3.168;2023-02-28T08:43:14;8;8;
73565;PMS5003;61846;52.970;-3.168;2023-02-28T08:45:40;8;8;
73565;PMS5003;61846;52.970;-3.168;2023-02-28T08:48:05;10;8;
73565;PMS5003;61846;52.970;-3.168;2023-02-28T08:50:31;9;9;
73565;PMS5003;61846;52.970;-3.168;2023-02-28T08:52:56;9;7;
73565;PMS5003;61846;52.970;-3.168;2023-02-28T08:55:22;11;9;
73565;PMS5003;61846;52.970;-3.168;2023-02-28T08:57:48;7;7;
73565;PMS5003;61846;52.970;-3.168;2023-02-28T09:00:14;9;8;
73565;PMS5003;61846;52.970;-3.168;2023-02-28T09:02:39;9;7;
73565;PMS5003;61846;52.970;-3.168;2023-02-28T09:05:05;5;4;
73565;PMS5003;61846;52.970;-3.168;2023-02-28T09:07:31;4;4;
73565;PMS5003;61846;52.970;-3.168;2023-02-28T09:09:57;5;5;
73565;PMS5003;61846;52.970;-3.168;2023-02-28T09:12:22;6;6;
73565;PMS5003;61846;52.970;-3.168;2023-02-28T09:14:47;14;7;
73565;PMS5003;61846;52.970;-3.168;2023-02-28T09:17:13;12;12;
73565;PMS5003;61846;52.970;-3.168;2023-02-28T09:19:38;16;10;
73565;PMS5003;61846;52.970;-3.168;2023-02-28T09:22:04;7;7;
73565;PMS5003;61846;52.970;-3.168;2023-02-28T09:24:29;15;15;
73565;PMS5003;61846;52.970;-3.168;2023-02-28T09:26:55;17;13;
73565;PMS5003;61846;52.970;-3.168;2023-02-28T09:29:21;10;9;
73565;PMS5003;61846;52.970;-3.168;2023-02-28T09:31:46;11;9;
73565;PMS5003;61846;52.970;-3.168;2023-02-28T09:34:12;18;13;
73565;PMS5003;61846;52.970;-3.168;2023-02-28T09:36:37;10;10;
73565;PMS5003;61846;52.970;-3.168;2023-02-28T09:39:03;8;8;
73565;PMS5003;61846;52.970;-3.168;2023-02-28T09:41:30;11;11;
73565;PMS5003;61846;52.970;-3.168;2023-02-28T09:43:55;9;9;
73565;PMS5003;61846;52.970;-3.168;2023-02-28T09:46:25;11;11;
73565;PMS5003;61846;52.970;-3.168;2023-02-28T09:48:45;9;8;
73565;PMS5003;61846;52.970;-3.168;2023-02-28T09:51:26;13;12;
73565;PMS5003;61846;52.970;-3.168;2023-02-28T09:53:36;12;10;
73565;PMS5003;61846;52.970;-3.168;2023-02-28T09:56:03;10;9;
73565;PMS5003;61846;52.970;-3.168;2023-02-28T09:58:29;12;11;
73565;PMS5003;61846;52.970;-3.168;2023-02-28T10:00:56;15;8;
73565;PMS5003;61846;52.970;-3.168;2023-02-28T10:03:25;14;12;
73565;PMS5003;61846;52.970;-3.168;2023-02-28T10:05:43;18;13;
73565;PMS5003;61846;52.970;-3.168;2023-02-28T10:08:12;16;14;
73565;PMS5003;61846;52.970;-3.168;2023-02-28T10:10:35;10;10;
73565;PMS5003;61846;52.970;-3.168;2023-02-28T10:13:00;9;9;
73565;PMS5003;61846;52.970;-3.168;2023-02-28T10:15:25;8;7;
73565;PMS5003;61846;52.970;-3.168;2023-02-28T10:17:51;14;14;
73565;PMS5003;61846;52.970;-3.168;2023-02-28T10:20:17;10;10;
73565;PMS5003;61846;52.970;-3.168;2023-02-28T10:22:43;18;12;
73565;PMS5003;61846;52.970;-3.168;2023-02-28T10:25:15;13;12;
73565;PMS5003;61846;52.970;-3.168;2023-02-28T10:27:32;8;8;
73565;PMS5003;61846;52.970;-3.168;2023-02-28T10:29:59;10;9;
73565;PMS5003;61846;52.970;-3.168;2023-02-28T10:32:25;24;23;
73565;PMS5003;61846;52.970;-3.168;2023-02-28T10:34:50;16;14;
73565;PMS5003;61846;52.970;-3.168;2023-02-28T10:37:14;12;11;
73565;PMS5003;61846;52.970;-3.168;2023-02-28T10:39:40;21;17;
73565;PMS5003;61846;52.970;-3.168;2023-02-28T10:42:17;20;17;
73565;PMS5003;61846;52.970;-3.168;2023-02-28T10:44:31;20;14;
73565;PMS5003;61846;52.970;-3.168;2023-02-28T10:46:56;16;14;
73565;PMS5003;61846;52.970;-3.168;2023-02-28T10:49:21;24;16;
73565;PMS5003;61846;52.970;-3.168;2023-02-28T10:51:52;13;13;
73565;PMS5003;61846;52.970;-3.168;2023-02-28T10:54:14;16;16;
73565;PMS5003;61846;52.970;-3.168;2023-02-28T10:56:37;21;16;
73565;PMS5003;61846;52.970;-3.168;2023-02-28T10:59:03;14;14;
73565;PMS5003;61846;52.970;-3.168;2023-02-28T11:01:35;31;24;
73565;PMS5003;61846;52.970;-3.168;2023-02-28T11:03:53;26;25;
73565;PMS5003;61846;52.970;-3.168;2023-02-28T11:06:19;17;16;
73565;PMS5003;61846;52.970;-3.168;2023-02-28T11:08:44;25;23;
73565;PMS5003;61846;52.970;-3.168;2023-02-28T11:11:09;28;19;
73565;PMS5003;61846;52.970;-3.168;2023-02-28T11:13:35;25;18;
73565;PMS5003;61846;52.970;-3.168;2023-02-28T11:16:00;16;14;
73565;PMS5003;61846;52.970;-3.168;2023-02-28T11:18:27;15;13;
73565;PMS5003;61846;52.970;-3.168;2023-02-28T11:20:50;9;9;
73565;PMS5003;61846;52.970;-3.168;2023-02-28T11:23:16;7;6;
73565;PMS5003;61846;52.970;-3.168;2023-02-28T11:25:45;4;4;
73565;PMS5003;61846;52.970;-3.168;2023-02-28T11:28:23;4;4;
73565;PMS5003;61846;52.970;-3.168;2023-02-28T11:30:34;6;6;
73565;PMS5003;61846;52.970;-3.168;2023-02-28T11:32:58;4;4;
73565;PMS5003;61846;52.970;-3.168;2023-02-28T11:35:25;5;5;
73565;PMS5003;61846;52.970;-3.168;2023-02-28T11:37:50;5;4;
73565;PMS5003;61846;52.970;-3.168;2023-02-28T11:40:16;8;8;
73565;PMS5003;61846;52.970;-3.168;2023-02-28T11:42:45;7;7;
73565;PMS5003;61846;52.970;-3.168;2023-02-28T11:45:11;6;6;
73565;PMS5003;61846;52.970;-3.168;2023-02-28T11:47:33;6;6;
73565;PMS5003;61846;52.970;-3.168;2023-02-28T11:50:03;4;4;
73565;PMS5003;61846;52.970;-3.168;2023-02-28T11:52:27;3;3;
73565;PMS5003;61846;52.970;-3.168;2023-02-28T11:54:58;3;3;
73565;PMS5003;61846;52.970;-3.168;2023-02-28T11:57:18;2;2;
73565;PMS5003;61846;52.970;-3.168;2023-02-28T11:59:46;2;2;
73565;PMS5003;61846;52.970;-3.168;2023-02-28T12:02:15;3;3;
73565;PMS5003;61846;52.970;-3.168;2023-02-28T12:04:33;6;4;
73565;PMS5003;61846;52.970;-3.168;2023-02-28T12:06:59;6;6;
73565;PMS5003;61846;52.970;-3.168;2023-02-28T12:11:51;3;3;
73565;PMS5003;61846;52.970;-3.168;2023-02-28T12:14:20;3;3;
73565;PMS5003;61846;52.970;-3.168;2023-02-28T12:16:47;2;2;
73565;PMS5003;61846;52.970;-3.168;2023-02-28T12:19:07;2;2;
73565;PMS5003;61846;52.970;-3.168;2023-02-28T12:21:34;3;2;
73565;PMS5003;61846;52.970;-3.168;2023-02-28T12:24:00;3;3;
73565;PMS5003;61846;52.970;-3.168;2023-02-28T12:26:23;5;2;
73565;PMS5003;61846;52.970;-3.168;2023-02-28T12:28:48;17;9;
73565;PMS5003;61846;52.970;-3.168;2023-02-28T12:31:15;2;2;
73565;PMS5003;61846;52.970;-3.168;2023-02-28T12:33:40;2;2;
73565;PMS5003;61846;52.970;-3.168;2023-02-28T12:36:05;5;4;
73565;PMS5003;61846;52.970;-3.168;2023-02-28T12:38:31;5;5;
73565;PMS5003;61846;52.970;-3.168;2023-02-28T12:40:57;1;1;
73565;PMS5003;61846;52.970;-3.168;2023-02-28T12:43:22;7;7;
73565;PMS5003;61846;52.970;-3.168;2023-02-28T12:45:48;3;3;
73565;PMS5003;61846;52.970;-3.168;2023-02-28T12:48:13;12;3;
73565;PMS5003;61846;52.970;-3.168;2023-02-28T12:50:37;5;5;
73565;PMS5003;61846;52.970;-3.168;2023-02-28T12:53:03;2;2;
73565;PMS5003;61846;52.970;-3.168;2023-02-28T12:55:30;3;3;
73565;PMS5003;61846;52.970;-3.168;2023-02-28T12:57:56;4;3;
73565;PMS5003;61846;52.970;-3.168;2023-02-28T13:00:20;4;2;
73565;PMS5003;61846;52.970;-3.168;2023-02-28T13:02:50;3;1;
73565;PMS5003;61846;52.970;-3.168;2023-02-28T13:07:42;4;4;
73565;PMS5003;61846;52.970;-3.168;2023-02-28T13:10:02;3;3;
73565;PMS5003;61846;52.970;-3.168;2023-02-28T13:12:27;5;5;
73565;PMS5003;61846;52.970;-3.168;2023-02-28T13:17:18;6;5;
73565;PMS5003;61846;52.970;-3.168;2023-02-28T13:19:44;6;6;
73565;PMS5003;61846;52.970;-3.168;2023-02-28T13:24:37;12;11;
73565;PMS5003;61846;52.970;-3.168;2023-02-28T13:29:27;13;12;
73565;PMS5003;61846;52.970;-3.168;2023-02-28T13:34:17;6;5;
73565;PMS5003;61846;52.970;-3.168;2023-02-28T13:36:43;10;8;
73565;PMS5003;61846;52.970;-3.168;2023-02-28T13:44:00;8;8;
73565;PMS5003;61846;52.970;-3.168;2023-02-28T13:46:24;7;7;
73565;PMS5003;61846;52.970;-3.168;2023-02-28T13:48:50;8;6;
73565;PMS5003;61846;52.970;-3.168;2023-02-28T13:53:50;6;5;
73565;PMS5003;61846;52.970;-3.168;2023-02-28T13:56:09;4;4;
73565;PMS5003;61846;52.970;-3.168;2023-02-28T13:58:38;12;8;
73565;PMS5003;61846;52.970;-3.168;2023-02-28T14:01:02;15;10;
73565;PMS5003;61846;52.970;-3.168;2023-02-28T14:03:27;6;6;
73565;PMS5003;61846;52.970;-3.168;2023-02-28T14:08:15;7;6;
73565;PMS5003;61846;52.970;-3.168;2023-02-28T14:10:41;5;5;
73565;PMS5003;61846;52.970;-3.168;2023-02-28T14:13:13;10;5;
73565;PMS5003;61846;52.970;-3.168;2023-02-28T14:17:56;10;6;
73565;PMS5003;61846;52.970;-3.168;2023-02-28T14:20:22;7;4;
73565;PMS5003;61846;52.970;-3.168;2023-02-28T14:22:50;6;3;
73565;PMS5003;61846;52.970;-3.168;2023-02-28T14:25:16;5;5;
73565;PMS5003;61846;52.970;-3.168;2023-02-28T14:27:42;60;46;
73565;PMS5003;61846;52.970;-3.168;2023-02-28T14:30:13;4;4;
73565;PMS5003;61846;52.970;-3.168;2023-02-28T14:32:32;6;4;
73565;PMS5003;61846;52.970;-3.168;2023-02-28T14:34:57;4;4;
73565;PMS5003;61846;52.970;-3.168;2023-02-28T14:37:23;7;7;
73565;PMS5003;61846;52.970;-3.168;2023-02-28T14:39:47;7;6;
73565;PMS5003;61846;52.970;-3.168;2023-02-28T14:44:38;4;4;
73565;PMS5003;61846;52.970;-3.168;2023-02-28T14:47:04;5;5;
73565;PMS5003;61846;52.970;-3.168;2023-02-28T14:49:30;6;4;
73565;PMS5003;61846;52.970;-3.168;2023-02-28T14:52:01;6;6;
73565;PMS5003;61846;52.970;-3.168;2023-02-28T14:54:21;4;3;
73565;PMS5003;61846;52.970;-3.168;2023-02-28T14:56:48;4;4;
73565;PMS5003;61846;52.970;-3.168;2023-02-28T14:59:22;1;1;
73565;PMS5003;61846;52.970;-3.168;2023-02-28T15:01:37;2;2;
73565;PMS5003;61846;52.970;-3.168;2023-02-28T15:04:05;4;4;
73565;PMS5003;61846;52.970;-3.168;2023-02-28T15:06:29;2;2;
73565;PMS5003;61846;52.970;-3.168;2023-02-28T15:11:20;2;2;
73565;PMS5003;61846;52.970;-3.168;2023-02-28T15:13:46;4;1;
73565;PMS5003;61846;52.970;-3.168;2023-02-28T15:16:11;3;3;
73565;PMS5003;61846;52.970;-3.168;2023-02-28T15:18:40;5;4;
73565;PMS5003;61846;52.970;-3.168;2023-02-28T15:21:03;2;2;
73565;PMS5003;61846;52.970;-3.168;2023-02-28T15:23:27;2;2;
73565;PMS5003;61846;52.970;-3.168;2023-02-28T15:25:53;3;3;
73565;PMS5003;61846;52.970;-3.168;2023-02-28T15:28:19;3;2;
73565;PMS5003;61846;52.970;-3.168;2023-02-28T15:30:51;4;3;
73565;PMS5003;61846;52.970;-3.168;2023-02-28T15:35:36;6;4;
73565;PMS5003;61846;52.970;-3.168;2023-02-28T15:38:02;9;9;
73565;PMS5003;61846;52.970;-3.168;2023-02-28T15:40:28;12;12;
73565;PMS5003;61846;52.970;-3.168;2023-02-28T15:42:59;17;17;
73565;PMS5003;61846;52.970;-3.168;2023-02-28T15:45:27;19;19;
73565;PMS5003;61846;52.970;-3.168;2023-02-28T15:47:44;18;13;
73565;PMS5003;61846;52.970;-3.168;2023-02-28T15:50:10;9;7;
73565;PMS5003;61846;52.970;-3.168;2023-02-28T15:52:38;6;5;
73565;PMS5003;61846;52.970;-3.168;2023-02-28T15:57:27;9;9;
73565;PMS5003;61846;52.970;-3.168;2023-02-28T15:59:52;4;4;
73565;PMS5003;61846;52.970;-3.168;2023-02-28T16:02:17;22;21;
73565;PMS5003;61846;52.970;-3.168;2023-02-28T16:07:12;20;20;
73565;PMS5003;61846;52.970;-3.168;2023-02-28T16:09:33;12;9;
73565;PMS5003;61846;52.970;-3.168;2023-02-28T16:12:00;11;8;
73565;PMS5003;61846;52.970;-3.168;2023-02-28T16:14:25;10;10;
73565;PMS5003;61846;52.970;-3.168;2023-02-28T16:16:51;2;2;
73565;PMS5003;61846;52.970;-3.168;2023-02-28T16:19:16;3;3;
73565;PMS5003;61846;52.970;-3.168;2023-02-28T16:21:41;8;4;
73565;PMS5003;61846;52.970;-3.168;2023-02-28T16:24:07;3;3;
73565;PMS5003;61846;52.970;-3.168;2023-02-28T16:26:33;4;4;
73565;PMS5003;61846;52.970;-3.168;2023-02-28T16:28:58;4;4;
73565;PMS5003;61846;52.970;-3.168;2023-02-28T16:31:24;5;3;
73565;PMS5003;61846;52.970;-3.168;2023-02-28T16:33:49;6;4;
73565;PMS5003;61846;52.970;-3.168;2023-02-28T16:36:16;3;2;
73565;PMS5003;61846;52.970;-3.168;2023-02-28T16:38:41;2;2;
73565;PMS5003;61846;52.970;-3.168;2023-02-28T16:41:06;4;4;
73565;PMS5003;61846;52.970;-3.168;2023-02-28T16:43:32;5;4;
73565;PMS5003;61846;52.970;-3.168;2023-02-28T16:45:58;4;3;